Time;durP1;ratioP1;P1;durP2;ratioP2;P2;SDS_P1;SDS_P2;PMS_P1;PMS_P2;Temp;Humidity;BMP_temperature;BMP_pressure;BME280_temperature;BME280_humidity;BME280_pressure;Samples;Min_cycle;Max_cycle;Signal;HPM_P1;HPM_P2
2021/11/11 00:00:13;;;;;;;7.75;2.38;;;;;;;;;;5033520;28;20032;-46
2021/11/11 00:02:39;;;;;;;3.00;1.92;;;;;;;;;;5034772;28;20032;-44
2021/11/11 00:05:05;;;;;;;24.80;4.13;;;;;;;;;;5034764;28;20029;-43
2021/11/11 00:07:32;;;;;;;5.57;2.70;;;;;;;;;;5033321;28;20024;-43
2021/11/11 00:09:58;;;;;;;4.75;2.22;;;;;;;;;;5033624;28;20126;-44
2021/11/11 00:12:25;;;;;;;8.48;2.17;;;;;;;;;;5032569;28;20428;-46
2021/11/11 00:14:51;;;;;;;19.17;4.43;;;;;;;;;;5039479;28;20529;-47
2021/11/11 00:17:16;;;;;;;10.75;2.10;;;;;;;;;;5035176;28;20020;-44
2021/11/11 00:19:41;;;;;;;7.95;2.90;;;;;;;;;;5034753;28;20031;-49
2021/11/11 00:22:06;;;;;;;14.02;2.83;;;;;;;;;;5034698;28;20029;-45
2021/11/11 00:24:32;;;;;;;4.70;2.53;;;;;;;;;;5034233;28;20045;-49
2021/11/11 00:26:57;;;;;;;25.05;4.70;;;;;;;;;;5035786;28;20162;-49
2021/11/11 00:29:23;;;;;;;17.63;3.05;;;;;;;;;;5033527;28;20411;-49
2021/11/11 00:31:48;;;;;;;9.50;3.00;;;;;;;;;;5038709;28;20025;-49
2021/11/11 00:34:13;;;;;;;4.63;2.85;;;;;;;;;;5034843;28;20029;-51
2021/11/11 00:36:39;;;;;;;6.18;1.38;;;;;;;;;;5030553;28;20045;-45
2021/11/11 00:39:05;;;;;;;15.18;2.88;;;;;;;;;;5035615;28;20028;-47
2021/11/11 00:41:30;;;;;;;10.90;3.40;;;;;;;;;;5032186;28;20021;-44
2021/11/11 00:43:56;;;;;;;16.17;4.18;;;;;;;;;;5035702;28;20563;-51
2021/11/11 00:46:21;;;;;;;10.85;2.45;;;;;;;;;;5034426;28;20064;-44
2021/11/11 00:48:47;;;;;;;5.00;2.42;;;;;;;;;;5034040;28;20102;-44
2021/11/11 00:51:12;;;;;;;4.72;2.38;;;;;;;;;;5033026;28;20035;-51
2021/11/11 00:53:37;;;;;;;9.85;1.38;;;;;;;;;;5030412;28;20564;-48
2021/11/11 00:56:03;;;;;;;5.60;1.70;;;;;;;;;;5031511;28;20100;-43
2021/11/11 00:58:28;;;;;;;15.50;3.45;;;;;;;;;;5031295;28;20037;-48
2021/11/11 01:00:53;;;;;;;9.77;2.38;;;;;;;;;;5034385;28;20024;-49
2021/11/11 01:03:21;;;;;;;10.98;1.98;;;;;;;;;;5036881;28;20389;-47
2021/11/11 01:05:48;;;;;;;19.13;3.05;;;;;;;;;;5036229;28;20037;-47
2021/11/11 01:08:13;;;;;;;8.27;3.20;;;;;;;;;;5032253;28;20247;-48
2021/11/11 01:10:39;;;;;;;11.50;3.08;;;;;;;;;;5035287;28;20020;-47
2021/11/11 01:13:04;;;;;;;10.77;3.47;;;;;;;;;;5035354;28;20430;-47
2021/11/11 01:15:30;;;;;;;20.83;2.72;;;;;;;;;;5031603;28;20025;-48
2021/11/11 01:17:56;;;;;;;15.63;3.80;;;;;;;;;;5035408;28;20624;-47
2021/11/11 01:20:22;;;;;;;14.60;3.05;;;;;;;;;;5033009;28;20025;-48
2021/11/11 01:22:48;;;;;;;15.50;4.43;;;;;;;;;;5033480;28;20396;-49
2021/11/11 01:25:16;;;;;;;5.13;0.95;;;;;;;;;;5033805;28;20029;-48
2021/11/11 01:27:42;;;;;;;7.43;3.00;;;;;;;;;;5033272;28;20586;-48
2021/11/11 01:30:08;;;;;;;10.88;2.08;;;;;;;;;;5036349;28;20053;-47
2021/11/11 01:32:34;;;;;;;7.25;2.55;;;;;;;;;;5034270;28;20029;-49
2021/11/11 01:34:59;;;;;;;9.52;1.17;;;;;;;;;;5037380;28;20020;-49
2021/11/11 01:37:25;;;;;;;8.75;1.67;;;;;;;;;;5036281;28;20048;-51
2021/11/11 01:39:50;;;;;;;12.18;3.63;;;;;;;;;;5035827;28;20368;-52
2021/11/11 01:42:16;;;;;;;9.40;4.88;;;;;;;;;;5032485;28;20521;-47
2021/11/11 01:44:51;;;;;;;14.07;3.78;;;;;;;;;;5035957;28;20021;-51
2021/11/11 01:47:17;;;;;;;4.95;1.60;;;;;;;;;;5035617;28;20089;-50
2021/11/11 01:49:42;;;;;;;6.85;1.58;;;;;;;;;;5035767;28;20053;-46
2021/11/11 01:52:09;;;;;;;11.07;2.28;;;;;;;;;;5034532;28;20025;-48
2021/11/11 01:54:34;;;;;;;9.43;2.22;;;;;;;;;;5033509;28;20021;-47
2021/11/11 01:56:59;;;;;;;16.05;4.45;;;;;;;;;;5033490;28;20424;-46
2021/11/11 01:59:25;;;;;;;5.70;1.80;;;;;;;;;;5033955;28;20036;-44
2021/11/11 02:01:50;;;;;;;3.20;1.23;;;;;;;;;;5032928;28;20033;-48
2021/11/11 02:04:15;;;;;;;17.55;3.80;;;;;;;;;;5035441;28;20684;-45
2021/11/11 02:06:41;;;;;;;3.17;1.15;;;;;;;;;;5031916;28;20813;-43
2021/11/11 02:09:07;;;;;;;6.65;3.20;;;;;;;;;;5033623;28;20025;-44
2021/11/11 02:11:32;;;;;;;14.27;3.65;;;;;;;;;;5035179;28;20032;-48
2021/11/11 02:13:57;;;;;;;7.85;2.75;;;;;;;;;;5036020;28;20013;-49
2021/11/11 02:16:23;;;;;;;17.60;4.20;;;;;;;;;;5032381;28;20482;-46
2021/11/11 02:18:48;;;;;;;16.90;5.55;;;;;;;;;;5034956;28;20629;-46
2021/11/11 02:21:14;;;;;;;10.45;3.42;;;;;;;;;;5036572;28;20722;-46
2021/11/11 02:23:39;;;;;;;17.25;3.67;;;;;;;;;;5034112;28;20021;-45
2021/11/11 02:26:05;;;;;;;10.02;3.10;;;;;;;;;;5032721;28;20407;-44
2021/11/11 02:28:30;;;;;;;18.23;4.78;;;;;;;;;;5033161;28;20023;-43
2021/11/11 02:30:56;;;;;;;18.55;6.25;;;;;;;;;;5029247;28;20040;-42
2021/11/11 02:33:22;;;;;;;10.13;2.10;;;;;;;;;;5028739;28;20017;-43
2021/11/11 02:35:48;;;;;;;15.43;5.35;;;;;;;;;;5030238;28;20480;-47
2021/11/11 02:38:13;;;;;;;7.88;3.40;;;;;;;;;;5033418;28;20027;-45
2021/11/11 02:40:39;;;;;;;24.02;4.72;;;;;;;;;;5032844;28;20017;-46
2021/11/11 02:43:05;;;;;;;18.85;5.20;;;;;;;;;;5033180;28;20056;-46
2021/11/11 02:45:32;;;;;;;11.85;4.85;;;;;;;;;;5030859;28;20045;-45
2021/11/11 02:47:58;;;;;;;12.85;5.80;;;;;;;;;;5034202;28;20484;-51
2021/11/11 02:50:24;;;;;;;10.32;2.00;;;;;;;;;;4991172;28;1245327;-49
2021/11/11 02:52:51;;;;;;;15.63;4.43;;;;;;;;;;5034423;28;20508;-46
2021/11/11 02:55:16;;;;;;;7.65;3.53;;;;;;;;;;5035862;28;20017;-47
2021/11/11 02:57:43;;;;;;;9.38;3.53;;;;;;;;;;5037935;28;20071;-46
2021/11/11 03:00:13;;;;;;;17.88;3.83;;;;;;;;;;5035187;28;20028;-41
2021/11/11 03:02:40;;;;;;;10.85;4.38;;;;;;;;;;5036738;28;20013;-42
2021/11/11 03:05:07;;;;;;;5.30;1.95;;;;;;;;;;5032078;28;20065;-43
2021/11/11 03:07:32;;;;;;;19.27;3.42;;;;;;;;;;5036590;28;20457;-42
2021/11/11 03:09:58;;;;;;;8.95;2.60;;;;;;;;;;5034098;28;20059;-43
2021/11/11 03:12:24;;;;;;;5.78;1.30;;;;;;;;;;5031284;28;20033;-42
2021/11/11 03:14:52;;;;;;;24.88;7.20;;;;;;;;;;5032789;28;20484;-45
2021/11/11 03:17:17;;;;;;;28.95;5.88;;;;;;;;;;5035781;28;20107;-45
2021/11/11 03:19:44;;;;;;;13.82;4.60;;;;;;;;;;5037379;28;20129;-42
2021/11/11 03:22:11;;;;;;;7.32;3.42;;;;;;;;;;5034498;28;20021;-44
2021/11/11 03:24:38;;;;;;;15.77;2.90;;;;;;;;;;5031232;28;21012;-43
2021/11/11 03:27:03;;;;;;;7.68;2.63;;;;;;;;;;5035731;28;20014;-42
2021/11/11 03:29:29;;;;;;;8.88;2.72;;;;;;;;;;5031613;28;20621;-42
2021/11/11 03:31:54;;;;;;;13.02;4.63;;;;;;;;;;5034357;28;20021;-45
2021/11/11 03:34:22;;;;;;;9.93;5.15;;;;;;;;;;5034495;28;20051;-44
2021/11/11 03:36:48;;;;;;;14.32;2.17;;;;;;;;;;5034150;28;20017;-46
2021/11/11 03:39:14;;;;;;;10.45;4.43;;;;;;;;;;5033518;28;20262;-43
2021/11/11 03:41:40;;;;;;;4.28;1.20;;;;;;;;;;5035796;28;20025;-44
2021/11/11 03:44:06;;;;;;;8.43;3.38;;;;;;;;;;5033358;28;20057;-42
2021/11/11 03:46:31;;;;;;;7.13;1.50;;;;;;;;;;5035372;28;20554;-45
2021/11/11 03:48:56;;;;;;;11.27;3.03;;;;;;;;;;5037292;28;20042;-42
2021/11/11 03:51:22;;;;;;;13.57;4.50;;;;;;;;;;5039126;28;20026;-44
2021/11/11 03:53:49;;;;;;;6.97;3.63;;;;;;;;;;5037711;28;20520;-44
2021/11/11 03:56:15;;;;;;;12.10;3.13;;;;;;;;;;5037116;28;20113;-45
2021/11/11 03:58:43;;;;;;;8.23;2.95;;;;;;;;;;5039229;28;20032;-43
2021/11/11 04:01:08;;;;;;;10.45;3.33;;;;;;;;;;5038413;28;20031;-44
2021/11/11 04:03:33;;;;;;;12.00;2.55;;;;;;;;;;5039792;28;20683;-43
2021/11/11 04:05:59;;;;;;;10.30;5.28;;;;;;;;;;5039623;28;20027;-45
2021/11/11 04:08:24;;;;;;;11.27;4.05;;;;;;;;;;5037192;28;20357;-49
2021/11/11 04:10:49;;;;;;;3.60;2.42;;;;;;;;;;5039523;28;20021;-42
2021/11/11 04:13:15;;;;;;;17.77;3.05;;;;;;;;;;5037699;28;20024;-46
2021/11/11 04:15:40;;;;;;;6.25;2.35;;;;;;;;;;5037585;28;20021;-44
2021/11/11 04:18:05;;;;;;;6.43;3.75;;;;;;;;;;5035734;28;20061;-46
2021/11/11 04:20:30;;;;;;;14.60;3.17;;;;;;;;;;5039272;28;20116;-43
2021/11/11 04:22:56;;;;;;;12.52;3.50;;;;;;;;;;5038420;28;20032;-43
2021/11/11 04:28:30;;;;;;;7.80;1.65;;;;;;;;;;5035294;28;20033;-44
2021/11/11 04:31:03;;;;;;;5.00;1.10;;;;;;;;;;5035653;28;20022;-42
2021/11/11 04:33:29;;;;;;;13.45;3.22;;;;;;;;;;5037721;28;20795;-46
2021/11/11 04:35:59;;;;;;;17.45;3.03;;;;;;;;;;5036308;28;20030;-45
2021/11/11 05:00:03;;;;;;;14.70;4.38;;;;;;;;;;5037929;28;20488;-42
2021/11/11 05:05:04;;;;;;;16.55;4.63;;;;;;;;;;5039430;28;20434;-42
2021/11/11 05:07:29;;;;;;;7.30;3.60;;;;;;;;;;5032578;28;20044;-45
2021/11/11 05:09:55;;;;;;;21.10;4.63;;;;;;;;;;5034499;28;20535;-44
2021/11/11 05:12:20;;;;;;;14.90;5.05;;;;;;;;;;5035284;28;20044;-46
2021/11/11 05:14:46;;;;;;;16.60;4.75;;;;;;;;;;5037385;28;20104;-48
2021/11/11 05:17:11;;;;;;;11.05;4.32;;;;;;;;;;5035487;28;20063;-44
2021/11/11 05:19:38;;;;;;;26.20;6.70;;;;;;;;;;5032606;28;20401;-48
2021/11/11 05:22:03;;;;;;;17.40;5.20;;;;;;;;;;5038653;28;20520;-41
2021/11/11 05:24:28;;;;;;;30.25;6.75;;;;;;;;;;5034636;28;20018;-41
2021/11/11 05:26:54;;;;;;;12.95;4.13;;;;;;;;;;5036632;28;20032;-42
2021/11/11 05:29:20;;;;;;;10.50;4.53;;;;;;;;;;5034780;28;20029;-41
2021/11/11 05:31:45;;;;;;;8.45;2.65;;;;;;;;;;5035904;28;20072;-41
2021/11/11 05:34:10;;;;;;;9.98;2.28;;;;;;;;;;5037489;28;20048;-41
2021/11/11 05:36:36;;;;;;;22.90;5.15;;;;;;;;;;5033359;28;20029;-42
2021/11/11 05:39:01;;;;;;;7.63;1.45;;;;;;;;;;5038223;28;20028;-49
2021/11/11 05:41:26;;;;;;;12.93;3.15;;;;;;;;;;5034448;28;20110;-42
2021/11/11 05:43:52;;;;;;;14.43;6.30;;;;;;;;;;5033661;28;20024;-41
2021/11/11 05:46:17;;;;;;;9.13;3.10;;;;;;;;;;5032935;28;20099;-41
2021/11/11 05:48:42;;;;;;;17.88;5.10;;;;;;;;;;5037791;28;20026;-41
2021/11/11 05:51:08;;;;;;;9.40;4.20;;;;;;;;;;5034600;28;20191;-41
2021/11/11 05:53:33;;;;;;;19.90;3.75;;;;;;;;;;5035922;28;20036;-44
2021/11/11 05:55:58;;;;;;;10.40;3.28;;;;;;;;;;5037630;28;20033;-43
2021/11/11 05:58:23;;;;;;;11.68;2.33;;;;;;;;;;5035296;28;20573;-49
2021/11/11 06:00:49;;;;;;;15.68;3.35;;;;;;;;;;5033947;28;20079;-48
2021/11/11 06:03:16;;;;;;;27.80;6.20;;;;;;;;;;5032538;28;20484;-42
2021/11/11 06:05:41;;;;;;;16.88;7.10;;;;;;;;;;5032981;28;20480;-48
2021/11/11 06:08:06;;;;;;;13.68;2.75;;;;;;;;;;5035158;28;20036;-42
2021/11/11 06:10:32;;;;;;;27.30;5.82;;;;;;;;;;5031957;28;20357;-45
2021/11/11 06:12:57;;;;;;;22.50;6.97;;;;;;;;;;5035163;28;20017;-43
2021/11/11 06:15:22;;;;;;;11.20;3.03;;;;;;;;;;5037645;28;20057;-49
2021/11/11 06:17:52;;;;;;;15.25;4.50;;;;;;;;;;5034693;28;20025;-49
2021/11/11 06:20:20;;;;;;;31.48;8.02;;;;;;;;;;5031706;28;20022;-44
2021/11/11 06:22:46;;;;;;;13.13;4.05;;;;;;;;;;5033499;28;20045;-41
2021/11/11 06:25:12;;;;;;;6.18;2.40;;;;;;;;;;5031921;28;20103;-46
2021/11/11 06:27:38;;;;;;;12.20;4.15;;;;;;;;;;5035100;28;20453;-47
2021/11/11 06:30:03;;;;;;;12.07;4.47;;;;;;;;;;5033709;28;20021;-44
2021/11/11 06:32:29;;;;;;;3.30;1.30;;;;;;;;;;5034598;28;20016;-46
2021/11/11 06:34:54;;;;;;;7.40;2.13;;;;;;;;;;5036276;28;20444;-46
2021/11/11 06:37:19;;;;;;;11.60;3.22;;;;;;;;;;5035171;28;20075;-44
2021/11/11 06:39:45;;;;;;;19.08;2.97;;;;;;;;;;5033960;28;20017;-47
2021/11/11 06:42:10;;;;;;;6.75;1.85;;;;;;;;;;5031541;28;20461;-44
2021/11/11 06:44:35;;;;;;;4.32;2.35;;;;;;;;;;5036900;28;20025;-43
2021/11/11 06:47:01;;;;;;;19.40;2.45;;;;;;;;;;5031875;28;20083;-42
2021/11/11 06:49:26;;;;;;;14.52;4.15;;;;;;;;;;5035047;28;20539;-47
2021/11/11 06:51:51;;;;;;;9.45;4.32;;;;;;;;;;5034334;28;20437;-49
2021/11/11 06:54:17;;;;;;;11.75;5.03;;;;;;;;;;5033771;28;20533;-44
2021/11/11 06:56:42;;;;;;;16.55;4.32;;;;;;;;;;5035803;28;20017;-47
2021/11/11 06:59:07;;;;;;;11.02;3.13;;;;;;;;;;5033371;28;20033;-44
2021/11/11 07:01:33;;;;;;;15.75;4.85;;;;;;;;;;5037034;28;20100;-42
2021/11/11 07:03:59;;;;;;;24.27;5.22;;;;;;;;;;5037034;28;20028;-46
2021/11/11 07:06:25;;;;;;;19.25;2.90;;;;;;;;;;5035768;28;20021;-48
2021/11/11 07:08:50;;;;;;;14.15;3.42;;;;;;;;;;5037906;28;20018;-44
2021/11/11 07:11:15;;;;;;;16.08;3.90;;;;;;;;;;5036791;28;20022;-42
2021/11/11 07:13:41;;;;;;;19.88;4.20;;;;;;;;;;5033356;28;20033;-43
2021/11/11 07:16:06;;;;;;;6.00;3.33;;;;;;;;;;5036109;28;20080;-44
2021/11/11 07:18:31;;;;;;;17.42;4.80;;;;;;;;;;5035157;28;20071;-46
2021/11/11 07:20:57;;;;;;;11.10;4.25;;;;;;;;;;5040847;28;20032;-44
2021/11/11 07:23:23;;;;;;;11.95;4.60;;;;;;;;;;5041226;28;20029;-43
2021/11/11 07:25:49;;;;;;;25.92;6.50;;;;;;;;;;5038301;28;20108;-43
2021/11/11 07:28:15;;;;;;;10.32;3.63;;;;;;;;;;5040970;28;20139;-46
2021/11/11 07:30:41;;;;;;;6.68;2.55;;;;;;;;;;5039322;28;20052;-45
2021/11/11 07:33:07;;;;;;;6.65;1.73;;;;;;;;;;5037166;28;20040;-58
2021/11/11 07:35:32;;;;;;;11.52;3.50;;;;;;;;;;5037177;28;20018;-57
2021/11/11 07:37:58;;;;;;;12.77;4.53;;;;;;;;;;5037623;28;20022;-60
2021/11/11 07:40:25;;;;;;;7.38;3.45;;;;;;;;;;5037712;28;20625;-60
2021/11/11 07:42:50;;;;;;;6.88;2.60;;;;;;;;;;5034093;28;20028;-66
2021/11/11 07:45:18;;;;;;;15.43;3.92;;;;;;;;;;5038946;28;20022;-61
2021/11/11 07:47:43;;;;;;;3.50;2.05;;;;;;;;;;5036648;28;20255;-60
2021/11/11 07:50:09;;;;;;;13.00;5.63;;;;;;;;;;5036823;28;20563;-61
2021/11/11 07:52:35;;;;;;;20.00;5.43;;;;;;;;;;5037089;28;20695;-62
2021/11/11 07:55:01;;;;;;;8.52;3.60;;;;;;;;;;5038073;28;20075;-63
2021/11/11 07:57:28;;;;;;;10.20;4.35;;;;;;;;;;5039853;28;20131;-59
2021/11/11 07:59:54;;;;;;;17.10;5.63;;;;;;;;;;5036542;28;20009;-60
2021/11/11 08:02:20;;;;;;;20.70;5.35;;;;;;;;;;5039770;28;20028;-58
2021/11/11 08:04:45;;;;;;;15.98;4.45;;;;;;;;;;5037622;28;20086;-61
2021/11/11 08:07:12;;;;;;;18.92;4.93;;;;;;;;;;5036689;28;20065;-60
2021/11/11 08:09:37;;;;;;;17.92;6.15;;;;;;;;;;5039107;28;20116;-52
2021/11/11 08:12:03;;;;;;;17.02;4.00;;;;;;;;;;5033500;28;20152;-59
2021/11/11 08:14:29;;;;;;;13.38;2.38;;;;;;;;;;5042268;28;20112;-60
2021/11/11 08:16:54;;;;;;;18.55;6.30;;;;;;;;;;5035720;28;20135;-61
2021/11/11 08:19:21;;;;;;;24.35;5.53;;;;;;;;;;5036798;28;20029;-60
2021/11/11 08:21:47;;;;;;;12.55;5.68;;;;;;;;;;5035661;28;20484;-60
2021/11/11 08:24:12;;;;;;;8.88;1.58;;;;;;;;;;5038086;28;20029;-60
2021/11/11 08:26:37;;;;;;;6.88;1.73;;;;;;;;;;5036650;28;20037;-60
2021/11/11 08:29:03;;;;;;;6.75;2.00;;;;;;;;;;5037013;28;20032;-60
2021/11/11 08:31:28;;;;;;;26.90;4.53;;;;;;;;;;5035298;28;20457;-60
2021/11/11 08:33:53;;;;;;;8.65;1.77;;;;;;;;;;5033517;28;20047;-60
2021/11/11 08:36:19;;;;;;;9.15;2.53;;;;;;;;;;5035006;28;20541;-60
2021/11/11 08:38:44;;;;;;;6.50;2.75;;;;;;;;;;5037616;28;20690;-60
2021/11/11 08:41:09;;;;;;;14.00;4.40;;;;;;;;;;5037609;28;20432;-60
2021/11/11 08:43:35;;;;;;;8.93;2.40;;;;;;;;;;5037706;28;20025;-60
2021/11/11 08:46:01;;;;;;;5.78;2.35;;;;;;;;;;5037107;28;20036;-60
2021/11/11 08:48:26;;;;;;;10.57;2.78;;;;;;;;;;5034330;28;20076;-60
2021/11/11 08:50:55;;;;;;;6.80;1.95;;;;;;;;;;5032581;28;20099;-60
2021/11/11 08:53:20;;;;;;;12.52;8.23;;;;;;;;;;5031670;28;20030;-68
2021/11/11 08:55:45;;;;;;;26.88;7.13;;;;;;;;;;5036692;28;20036;-65
2021/11/11 08:58:12;;;;;;;13.35;5.18;;;;;;;;;;5040567;28;20689;-65
2021/11/11 09:00:40;;;;;;;10.00;4.22;;;;;;;;;;5035363;28;20112;-65
2021/11/11 09:03:06;;;;;;;16.95;7.13;;;;;;;;;;5034449;28;20029;-66
2021/11/11 09:05:33;;;;;;;14.35;6.03;;;;;;;;;;5035691;28;20025;-66
2021/11/11 09:08:00;;;;;;;18.50;6.40;;;;;;;;;;5034535;28;20028;-65
2021/11/11 09:10:25;;;;;;;21.50;6.25;;;;;;;;;;5030701;28;20029;-66
2021/11/11 09:12:55;;;;;;;8.25;3.63;;;;;;;;;;5037405;28;20021;-66
2021/11/11 09:15:22;;;;;;;14.50;5.18;;;;;;;;;;5034325;28;20033;-66
2021/11/11 09:17:48;;;;;;;11.75;3.83;;;;;;;;;;5035526;28;20439;-66
2021/11/11 09:20:14;;;;;;;28.33;16.10;;;;;;;;;;5034469;28;20017;-66
2021/11/11 09:22:39;;;;;;;10.52;5.45;;;;;;;;;;5032602;28;20531;-66
2021/11/11 09:25:06;;;;;;;9.73;4.80;;;;;;;;;;5033978;28;20064;-65
2021/11/11 09:27:32;;;;;;;14.93;3.58;;;;;;;;;;5028719;28;20036;-65
2021/11/11 09:29:58;;;;;;;20.60;5.68;;;;;;;;;;5030894;28;20017;-60
2021/11/11 09:32:23;;;;;;;8.63;4.18;;;;;;;;;;5034968;28;20049;-60
2021/11/11 09:34:49;;;;;;;8.70;2.40;;;;;;;;;;5034708;28;20032;-58
2021/11/11 09:37:14;;;;;;;11.07;4.57;;;;;;;;;;5035404;28;20030;-59
2021/11/11 09:39:40;;;;;;;14.43;5.78;;;;;;;;;;5032115;28;20128;-58
2021/11/11 09:42:05;;;;;;;8.00;3.67;;;;;;;;;;5035376;28;20572;-58
2021/11/11 09:44:30;;;;;;;15.18;5.18;;;;;;;;;;5033657;28;20413;-58
2021/11/11 09:46:56;;;;;;;13.95;5.25;;;;;;;;;;5036293;28;20033;-58
2021/11/11 09:49:22;;;;;;;11.23;2.95;;;;;;;;;;5035796;28;20056;-59
2021/11/11 09:51:49;;;;;;;3.78;1.00;;;;;;;;;;5031034;28;20443;-58
2021/11/11 09:59:28;;;;;;;3.70;1.23;;;;;;;;;;5032506;28;20075;-58
2021/11/11 10:01:54;;;;;;;1.63;0.90;;;;;;;;;;5034183;28;20120;-58
2021/11/11 10:04:20;;;;;;;3.10;1.15;;;;;;;;;;5030805;28;20063;-59
2021/11/11 10:06:46;;;;;;;3.40;1.08;;;;;;;;;;5035165;28;20073;-60
2021/11/11 10:09:19;;;;;;;2.60;2.15;;;;;;;;;;5035153;28;20039;-60
2021/11/11 10:11:52;;;;;;;2.45;1.02;;;;;;;;;;5032715;28;20037;-59
2021/11/11 10:14:20;;;;;;;4.45;1.30;;;;;;;;;;5034890;28;20524;-58
2021/11/11 10:16:54;;;;;;;1.35;0.30;;;;;;;;;;5033524;28;20087;-57
2021/11/11 10:19:20;;;;;;;4.60;1.35;;;;;;;;;;5029750;28;20029;-58
2021/11/11 10:21:58;;;;;;;3.50;1.38;;;;;;;;;;5025963;28;20033;-58
2021/11/11 10:24:48;;;;;;;8.60;1.13;;;;;;;;;;5028445;28;20101;-61
2021/11/11 10:27:25;;;;;;;9.50;1.60;;;;;;;;;;5031938;28;20049;-60
2021/11/11 10:29:50;;;;;;;4.97;1.98;;;;;;;;;;5034932;28;20025;-60
2021/11/11 10:32:27;;;;;;;3.50;1.45;;;;;;;;;;5034468;28;20021;-60
2021/11/11 10:34:53;;;;;;;6.75;2.63;;;;;;;;;;5030823;28;20506;-60
2021/11/11 10:37:19;;;;;;;3.08;1.92;;;;;;;;;;5036694;28;20025;-60
2021/11/11 10:39:53;;;;;;;4.88;3.15;;;;;;;;;;5038777;28;20044;-59
2021/11/11 10:42:19;;;;;;;4.93;1.73;;;;;;;;;;5036029;28;20029;-59
2021/11/11 10:44:46;;;;;;;8.57;2.00;;;;;;;;;;5031087;28;20025;-61
2021/11/11 10:47:18;;;;;;;4.78;1.48;;;;;;;;;;5031595;28;20025;-60
2021/11/11 10:49:43;;;;;;;;;;;;;;;;;;5030357;28;20412;-59
2021/11/11 10:52:20;;;;;;;4.85;2.08;;;;;;;;;;5030876;28;19908;-59
2021/11/11 10:54:56;;;;;;;1.90;0.60;;;;;;;;;;5029710;28;20030;-59
2021/11/11 10:57:41;;;;;;;1.15;0.73;;;;;;;;;;5037577;28;20035;-59
2021/11/11 11:00:11;;;;;;;6.35;1.88;;;;;;;;;;5039364;28;20017;-59
2021/11/11 11:03:03;;;;;;;2.97;1.25;;;;;;;;;;5035754;28;20025;-59
2021/11/11 11:05:49;;;;;;;4.30;1.38;;;;;;;;;;5035129;28;20068;-59
2021/11/11 11:08:16;;;;;;;4.47;1.20;;;;;;;;;;5034789;28;20125;-58
2021/11/11 11:10:46;;;;;;;5.85;1.52;;;;;;;;;;5034701;28;20122;-60
2021/11/11 11:13:19;;;;;;;2.63;1.58;;;;;;;;;;5036708;28;20029;-60
2021/11/11 11:15:53;;;;;;;3.70;0.95;;;;;;;;;;5034387;28;20535;-60
2021/11/11 11:18:20;;;;;;;1.17;0.90;;;;;;;;;;5035421;28;20030;-60
2021/11/11 11:20:46;;;;;;;9.63;1.40;;;;;;;;;;5036294;28;20037;-60
2021/11/11 11:23:14;;;;;;;4.00;1.42;;;;;;;;;;5036042;28;20029;-61
2021/11/11 11:25:48;;;;;;;2.35;1.20;;;;;;;;;;5034350;28;20022;-61
2021/11/11 11:28:27;;;;;;;3.15;1.63;;;;;;;;;;5036355;28;20334;-60
2021/11/11 11:30:54;;;;;;;1.67;1.02;;;;;;;;;;5031927;28;20477;-58
2021/11/11 11:33:30;;;;;;;1.25;0.77;;;;;;;;;;5037671;28;20065;-58
2021/11/11 11:36:07;;;;;;;4.63;2.70;;;;;;;;;;5036835;28;20559;-58
2021/11/11 11:38:39;;;;;;;5.43;1.80;;;;;;;;;;5036868;28;20145;-58
2021/11/11 11:41:04;;;;;;;;;;;;;;;;;;5034296;28;20537;-57
2021/11/11 11:43:30;;;;;;;3.10;1.73;;;;;;;;;;5033114;28;19913;-58
2021/11/11 11:46:15;;;;;;;2.05;1.35;;;;;;;;;;5031854;28;20033;-58
2021/11/11 11:48:42;;;;;;;8.95;8.00;;;;;;;;;;5035278;28;20021;-58
2021/11/11 11:51:09;;;;;;;8.07;6.53;;;;;;;;;;5035050;28;20040;-57
2021/11/11 11:53:40;;;;;;;4.07;2.22;;;;;;;;;;5033282;28;20107;-57
2021/11/11 11:56:13;;;;;;;3.00;1.77;;;;;;;;;;5038258;28;20108;-58
2021/11/11 12:04:17;;;;;;;5.53;1.33;;;;;;;;;;5034291;28;20041;-58
2021/11/11 12:09:32;;;;;;;2.65;1.10;;;;;;;;;;5035892;28;20460;-58
2021/11/11 12:12:25;;;;;;;5.40;3.17;;;;;;;;;;5036269;28;20025;-58
2021/11/11 12:15:07;;;;;;;28.88;8.90;;;;;;;;;;5068365;28;20693;-58
2021/11/11 12:28:41;;;;;;;3.22;0.70;;;;;;;;;;5033607;28;20064;-58
2021/11/11 12:39:44;;;;;;;6.03;1.50;;;;;;;;;;5034244;28;20039;-61
2021/11/11 12:42:17;;;;;;;6.60;2.08;;;;;;;;;;5035678;28;20072;-60
2021/11/11 12:44:59;;;;;;;4.72;1.48;;;;;;;;;;5035624;28;20165;-61
2021/11/11 12:47:32;;;;;;;2.53;1.13;;;;;;;;;;5037245;28;20031;-59
2021/11/11 12:50:16;;;;;;;2.50;1.17;;;;;;;;;;5040463;28;20037;-59
2021/11/11 12:52:42;;;;;;;2.83;1.48;;;;;;;;;;5033822;28;20024;-59
2021/11/11 12:55:15;;;;;;;1.67;1.00;;;;;;;;;;5032456;28;20018;-59
2021/11/11 12:57:57;;;;;;;5.47;3.22;;;;;;;;;;5039237;28;20029;-59
2021/11/11 13:00:31;;;;;;;5.75;1.92;;;;;;;;;;5037260;28;20057;-59
2021/11/11 13:02:57;;;;;;;1.50;1.23;;;;;;;;;;5038149;28;20025;-59
2021/11/11 13:05:40;;;;;;;4.47;0.93;;;;;;;;;;5036395;28;20036;-59
2021/11/11 13:08:06;;;;;;;11.88;2.90;;;;;;;;;;5036372;28;20047;-59
2021/11/11 13:10:31;;;;;;;4.88;3.22;;;;;;;;;;5035026;28;20551;-59
2021/11/11 13:13:08;;;;;;;7.20;1.58;;;;;;;;;;5038428;28;20142;-59
2021/11/11 13:15:41;;;;;;;2.72;1.45;;;;;;;;;;5034115;28;20144;-59
2021/11/11 13:18:06;;;;;;;5.65;3.25;;;;;;;;;;5034346;28;20040;-59
2021/11/11 13:20:40;;;;;;;9.50;2.78;;;;;;;;;;5033162;28;20505;-59
2021/11/11 13:23:17;;;;;;;8.52;5.07;;;;;;;;;;5037083;28;20137;-59
2021/11/11 16:28:01;;;;;;;4.57;1.63;;;;;;;;;;5037111;28;20013;-56
2021/11/11 16:30:26;;;;;;;4.82;3.80;;;;;;;;;;5037565;28;20013;-56
2021/11/11 16:32:52;;;;;;;5.38;4.05;;;;;;;;;;5032762;28;20028;-56
2021/11/11 16:35:19;;;;;;;5.75;5.07;;;;;;;;;;5036925;28;20022;-58
2021/11/11 16:37:45;;;;;;;7.03;2.42;;;;;;;;;;5034972;28;20048;-55
2021/11/11 16:40:11;;;;;;;1.30;0.80;;;;;;;;;;5035471;28;20053;-57
2021/11/11 16:42:37;;;;;;;4.35;3.25;;;;;;;;;;5038452;28;20262;-57
2021/11/11 16:45:03;;;;;;;25.40;23.13;;;;;;;;;;5038788;28;20469;-58
2021/11/11 16:47:28;;;;;;;8.25;5.13;;;;;;;;;;5036615;28;20104;-57
2021/11/11 16:49:54;;;;;;;11.40;9.38;;;;;;;;;;5036738;28;20056;-57
2021/11/11 16:52:20;;;;;;;17.02;9.93;;;;;;;;;;5042929;28;20463;-57
2021/11/11 16:54:45;;;;;;;5.28;3.22;;;;;;;;;;5036503;28;20017;-57
2021/11/11 16:57:10;;;;;;;8.05;4.35;;;;;;;;;;5037044;28;20027;-57
2021/11/11 16:59:36;;;;;;;4.10;2.05;;;;;;;;;;5039057;28;20017;-57
2021/11/11 17:02:02;;;;;;;11.38;4.82;;;;;;;;;;5036452;28;20029;-54
2021/11/11 17:04:27;;;;;;;5.88;4.30;;;;;;;;;;5039121;28;20048;-53
2021/11/11 17:06:53;;;;;;;6.72;3.15;;;;;;;;;;5037000;28;20667;-49
2021/11/11 17:09:19;;;;;;;6.65;2.47;;;;;;;;;;5038551;28;20097;-55
2021/11/11 17:11:45;;;;;;;7.47;5.20;;;;;;;;;;5033850;28;20462;-54
2021/11/11 17:14:10;;;;;;;2.78;1.00;;;;;;;;;;5034176;28;20017;-56
2021/11/11 17:16:37;;;;;;;19.08;7.15;;;;;;;;;;5036527;28;20037;-52
2021/11/11 17:19:04;;;;;;;12.23;6.43;;;;;;;;;;5037538;28;20029;-51
2021/11/11 17:21:29;;;;;;;8.07;5.25;;;;;;;;;;5039002;28;20098;-54
2021/11/11 17:23:59;;;;;;;3.67;2.13;;;;;;;;;;5036504;28;20492;-52
2021/11/11 17:29:09;;;;;;;4.97;1.45;;;;;;;;;;5033224;28;20056;-53
2021/11/11 17:31:34;;;;;;;0.55;0.50;;;;;;;;;;5035339;28;20021;-52
2021/11/11 17:34:00;;;;;;;7.68;4.32;;;;;;;;;;5036948;28;20115;-49
2021/11/11 17:36:25;;;;;;;13.18;4.70;;;;;;;;;;5036913;28;20116;-51
2021/11/11 17:38:52;;;;;;;2.13;0.80;;;;;;;;;;5036110;28;20112;-50
2021/11/11 17:41:18;;;;;;;0.70;0.60;;;;;;;;;;5035460;28;20037;-51
2021/11/11 17:43:47;;;;;;;1.55;0.70;;;;;;;;;;5034156;28;20033;-54
2021/11/11 17:46:17;;;;;;;2.78;1.83;;;;;;;;;;5036461;28;20037;-52
2021/11/11 17:48:46;;;;;;;7.32;2.55;;;;;;;;;;5030764;28;20482;-53
2021/11/11 17:51:19;;;;;;;6.35;2.25;;;;;;;;;;5032316;28;20328;-48
2021/11/11 17:53:48;;;;;;;2.22;1.48;;;;;;;;;;5033297;28;20128;-57
2021/11/11 17:56:13;;;;;;;4.70;1.38;;;;;;;;;;5032019;28;20044;-56
2021/11/11 17:58:40;;;;;;;2.97;1.08;;;;;;;;;;5041522;28;20024;-54
2021/11/11 18:01:09;;;;;;;3.92;1.63;;;;;;;;;;5041049;28;20029;-56
2021/11/11 18:03:35;;;;;;;5.07;1.65;;;;;;;;;;5033104;28;20028;-55
2021/11/11 18:09:00;;;;;;;3.35;0.70;;;;;;;;;;5043533;28;20055;-57
2021/11/11 18:11:29;;;;;;;2.78;1.05;;;;;;;;;;5038133;28;20132;-55
2021/11/11 18:14:03;;;;;;;5.32;2.63;;;;;;;;;;5034392;28;20485;-55
2021/11/11 18:16:31;;;;;;;3.50;1.60;;;;;;;;;;5035032;28;20041;-56
2021/11/11 18:18:57;;;;;;;4.97;3.60;;;;;;;;;;5033617;28;20021;-56
2021/11/11 18:21:24;;;;;;;2.25;1.05;;;;;;;;;;5036251;28;20397;-56
2021/11/11 18:23:50;;;;;;;2.38;0.73;;;;;;;;;;5034714;28;20028;-55
2021/11/11 18:26:16;;;;;;;5.88;3.13;;;;;;;;;;5033777;28;20124;-55
2021/11/11 18:28:52;;;;;;;3.72;1.42;;;;;;;;;;5035797;28;20556;-57
2021/11/11 18:31:23;;;;;;;1.40;0.95;;;;;;;;;;5030893;28;20469;-57
2021/11/11 18:34:04;;;;;;;;;;;;;;;;;;5036254;28;20431;-57
2021/11/11 18:36:34;;;;;;;2.60;1.10;;;;;;;;;;5034751;28;19912;-55
2021/11/11 18:39:01;;;;;;;1.33;0.65;;;;;;;;;;5038370;28;20047;-57
2021/11/11 18:41:26;;;;;;;5.38;1.55;;;;;;;;;;5034051;28;20056;-57
2021/11/11 18:43:52;;;;;;;2.38;0.55;;;;;;;;;;5033132;28;20053;-56
2021/11/11 18:46:17;;;;;;;1.80;0.88;;;;;;;;;;5035235;28;20039;-54